sensor_id;sensor_type;location;lat;lon;timestamp;pressure;altitude;pressure_sealevel;temperature;humidity
43298;BME280;28892;55.640;37.532;2023-06-14T00:00:04;99146.63;;;16.54;44.93
43298;BME280;28892;55.640;37.532;2023-06-14T00:02:34;99150.22;;;16.48;45.17
43298;BME280;28892;55.640;37.532;2023-06-14T00:05:04;99149.75;;;16.51;45.58
43298;BME280;28892;55.640;37.532;2023-06-14T00:07:51;99138.84;;;16.53;45.31
43298;BME280;28892;55.640;37.532;2023-06-14T00:10:21;99148.50;;;16.54;45.48
43298;BME280;28892;55.640;37.532;2023-06-14T00:12:50;99146.88;;;16.53;45.82
43298;BME280;28892;55.640;37.532;2023-06-14T00:15:15;99151.91;;;16.42;46.16
43298;BME280;28892;55.640;37.532;2023-06-14T00:17:43;99157.13;;;16.56;45.87
43298;BME280;28892;55.640;37.532;2023-06-14T00:20:12;99147.97;;;16.45;45.64
43298;BME280;28892;55.640;37.532;2023-06-14T00:22:38;99143.19;;;16.47;45.60
43298;BME280;28892;55.640;37.532;2023-06-14T00:25:05;99149.53;;;16.53;45.77
43298;BME280;28892;55.640;37.532;2023-06-14T00:27:34;99157.25;;;16.61;45.69
43298;BME280;28892;55.640;37.532;2023-06-14T00:30:03;99147.22;;;16.56;46.00
43298;BME280;28892;55.640;37.532;2023-06-14T00:32:30;99137.53;;;16.55;45.79
43298;BME280;28892;55.640;37.532;2023-06-14T00:34:56;99150.66;;;16.64;45.76
43298;BME280;28892;55.640;37.532;2023-06-14T00:37:22;99143.34;;;16.52;45.88
43298;BME280;28892;55.640;37.532;2023-06-14T00:39:48;99146.50;;;16.49;45.81
43298;BME280;28892;55.640;37.532;2023-06-14T00:42:24;99143.19;;;16.66;45.80
43298;BME280;28892;55.640;37.532;2023-06-14T00:44:51;99148.78;;;16.64;45.11
43298;BME280;28892;55.640;37.532;2023-06-14T00:47:17;99143.28;;;16.59;45.96
43298;BME280;28892;55.640;37.532;2023-06-14T00:49:48;99144.69;;;16.61;46.15
43298;BME280;28892;55.640;37.532;2023-06-14T00:52:16;99153.69;;;16.48;46.00
43298;BME280;28892;55.640;37.532;2023-06-14T00:54:42;99139.94;;;16.45;46.18
43298;BME280;28892;55.640;37.532;2023-06-14T00:57:09;99144.56;;;16.38;46.39
43298;BME280;28892;55.640;37.532;2023-06-14T00:59:47;99152.56;;;16.56;46.43
43298;BME280;28892;55.640;37.532;2023-06-14T01:02:16;99142.38;;;16.46;46.33
43298;BME280;28892;55.640;37.532;2023-06-14T01:04:45;99141.56;;;16.46;46.61
43298;BME280;28892;55.640;37.532;2023-06-14T01:10:20;99156.22;;;16.43;46.43
43298;BME280;28892;55.640;37.532;2023-06-14T01:13:14;99152.06;;;16.47;46.76
43298;BME280;28892;55.640;37.532;2023-06-14T01:15:44;99150.63;;;16.26;47.28
43298;BME280;28892;55.640;37.532;2023-06-14T01:18:10;99150.84;;;16.25;47.09
43298;BME280;28892;55.640;37.532;2023-06-14T01:20:45;99151.44;;;16.27;47.37
43298;BME280;28892;55.640;37.532;2023-06-14T01:23:20;99142.44;;;16.21;47.36
43298;BME280;28892;55.640;37.532;2023-06-14T01:25:47;99157.00;;;16.25;47.23
43298;BME280;28892;55.640;37.532;2023-06-14T01:28:15;99152.34;;;16.20;47.86
43298;BME280;28892;55.640;37.532;2023-06-14T01:30:44;99153.59;;;16.18;47.86
43298;BME280;28892;55.640;37.532;2023-06-14T01:33:15;99158.03;;;16.24;47.92
43298;BME280;28892;55.640;37.532;2023-06-14T01:35:44;99157.59;;;16.09;48.52
43298;BME280;28892;55.640;37.532;2023-06-14T01:38:12;99152.44;;;16.07;48.28
43298;BME280;28892;55.640;37.532;2023-06-14T01:40:39;99152.38;;;16.14;48.49
43298;BME280;28892;55.640;37.532;2023-06-14T01:43:06;99152.63;;;16.12;48.48
43298;BME280;28892;55.640;37.532;2023-06-14T01:45:36;99157.63;;;16.27;48.08
43298;BME280;28892;55.640;37.532;2023-06-14T01:48:02;99162.81;;;16.22;48.28
43298;BME280;28892;55.640;37.532;2023-06-14T01:50:31;99153.91;;;16.28;48.26
43298;BME280;28892;55.640;37.532;2023-06-14T01:53:06;99140.94;;;16.25;48.23
43298;BME280;28892;55.640;37.532;2023-06-14T01:55:37;99155.53;;;16.29;48.69
43298;BME280;28892;55.640;37.532;2023-06-14T01:58:06;99163.50;;;16.36;48.41
43298;BME280;28892;55.640;37.532;2023-06-14T02:00:33;99147.28;;;16.31;48.58
43298;BME280;28892;55.640;37.532;2023-06-14T02:02:59;99159.03;;;16.30;48.88
43298;BME280;28892;55.640;37.532;2023-06-14T02:05:26;99151.59;;;16.32;48.60
43298;BME280;28892;55.640;37.532;2023-06-14T02:07:54;99153.84;;;16.35;48.93
43298;BME280;28892;55.640;37.532;2023-06-14T02:10:20;99145.81;;;16.35;49.28
43298;BME280;28892;55.640;37.532;2023-06-14T02:12:48;99153.25;;;16.33;49.18
43298;BME280;28892;55.640;37.532;2023-06-14T02:15:14;99150.31;;;16.34;49.06
43298;BME280;28892;55.640;37.532;2023-06-14T02:17:46;99156.00;;;16.45;49.22
43298;BME280;28892;55.640;37.532;2023-06-14T02:20:19;99141.72;;;16.32;48.87
43298;BME280;28892;55.640;37.532;2023-06-14T02:23:18;99148.41;;;16.60;48.89
43298;BME280;28892;55.640;37.532;2023-06-14T02:25:44;99154.28;;;16.51;49.50
43298;BME280;28892;55.640;37.532;2023-06-14T02:28:50;99143.06;;;16.60;48.74
43298;BME280;28892;55.640;37.532;2023-06-14T02:31:16;99139.72;;;16.65;47.97
43298;BME280;28892;55.640;37.532;2023-06-14T02:33:42;99152.44;;;16.70;48.34
43298;BME280;28892;55.640;37.532;2023-06-14T02:36:08;99147.81;;;16.77;48.40
43298;BME280;28892;55.640;37.532;2023-06-14T02:38:34;99158.81;;;16.87;48.47
43298;BME280;28892;55.640;37.532;2023-06-14T02:41:00;99156.28;;;16.93;48.20
43298;BME280;28892;55.640;37.532;2023-06-14T02:43:28;99156.81;;;17.01;47.51
43298;BME280;28892;55.640;37.532;2023-06-14T02:45:55;99156.59;;;17.03;47.46
43298;BME280;28892;55.640;37.532;2023-06-14T02:48:21;99154.25;;;17.07;47.43
43298;BME280;28892;55.640;37.532;2023-06-14T02:50:47;99157.78;;;17.07;48.06
43298;BME280;28892;55.640;37.532;2023-06-14T02:53:13;99165.97;;;17.12;47.96
43298;BME280;28892;55.640;37.532;2023-06-14T02:55:39;99167.13;;;17.16;47.78
43298;BME280;28892;55.640;37.532;2023-06-14T02:58:06;99162.56;;;17.17;47.65
43298;BME280;28892;55.640;37.532;2023-06-14T03:00:33;99169.41;;;17.31;47.74
43298;BME280;28892;55.640;37.532;2023-06-14T03:03:01;99161.38;;;17.31;47.63
43298;BME280;28892;55.640;37.532;2023-06-14T03:05:27;99172.47;;;17.35;47.97
43298;BME280;28892;55.640;37.532;2023-06-14T03:07:54;99167.53;;;17.32;48.18
43298;BME280;28892;55.640;37.532;2023-06-14T03:10:20;99169.91;;;17.40;48.30
43298;BME280;28892;55.640;37.532;2023-06-14T03:12:48;99171.44;;;17.48;47.17
43298;BME280;28892;55.640;37.532;2023-06-14T03:15:15;99162.22;;;17.44;46.75
43298;BME280;28892;55.640;37.532;2023-06-14T03:17:46;99168.31;;;17.51;46.75
43298;BME280;28892;55.640;37.532;2023-06-14T03:20:16;99175.66;;;17.56;46.88
43298;BME280;28892;55.640;37.532;2023-06-14T03:22:43;99168.56;;;17.62;46.94
43298;BME280;28892;55.640;37.532;2023-06-14T03:25:12;99167.63;;;17.68;45.70
43298;BME280;28892;55.640;37.532;2023-06-14T03:27:39;99169.88;;;17.83;45.01
43298;BME280;28892;55.640;37.532;2023-06-14T03:30:06;99167.66;;;17.80;45.58
43298;BME280;28892;55.640;37.532;2023-06-14T03:32:39;99162.19;;;17.86;45.45
43298;BME280;28892;55.640;37.532;2023-06-14T03:35:06;99167.72;;;18.04;45.20
43298;BME280;28892;55.640;37.532;2023-06-14T03:37:35;99155.72;;;18.06;44.57
43298;BME280;28892;55.640;37.532;2023-06-14T03:40:00;99165.84;;;18.16;44.19
43298;BME280;28892;55.640;37.532;2023-06-14T03:42:27;99152.78;;;18.20;44.10
43298;BME280;28892;55.640;37.532;2023-06-14T03:44:54;99153.00;;;18.30;43.93
43298;BME280;28892;55.640;37.532;2023-06-14T03:47:22;99152.06;;;18.36;43.78
43298;BME280;28892;55.640;37.532;2023-06-14T03:49:48;99159.28;;;18.48;42.84
43298;BME280;28892;55.640;37.532;2023-06-14T03:52:14;99155.91;;;18.52;42.74
43298;BME280;28892;55.640;37.532;2023-06-14T03:54:42;99164.31;;;18.56;43.02
43298;BME280;28892;55.640;37.532;2023-06-14T03:57:14;99150.16;;;18.61;42.51
43298;BME280;28892;55.640;37.532;2023-06-14T04:00:10;99166.63;;;18.76;42.40
43298;BME280;28892;55.640;37.532;2023-06-14T04:03:02;99163.44;;;18.91;41.75
43298;BME280;28892;55.640;37.532;2023-06-14T04:05:30;99155.25;;;18.86;41.62
43298;BME280;28892;55.640;37.532;2023-06-14T04:07:57;99163.72;;;18.95;42.28
43298;BME280;28892;55.640;37.532;2023-06-14T04:10:24;99153.72;;;19.02;41.40
43298;BME280;28892;55.640;37.532;2023-06-14T04:12:50;99154.13;;;19.11;41.05
43298;BME280;28892;55.640;37.532;2023-06-14T04:15:17;99164.13;;;19.27;41.29
43298;BME280;28892;55.640;37.532;2023-06-14T04:17:50;99160.16;;;19.30;40.68
43298;BME280;28892;55.640;37.532;2023-06-14T04:20:16;99161.53;;;19.50;40.10
43298;BME280;28892;55.640;37.532;2023-06-14T04:22:42;99166.38;;;19.65;39.25
43298;BME280;28892;55.640;37.532;2023-06-14T04:25:10;99168.91;;;19.72;39.20
43298;BME280;28892;55.640;37.532;2023-06-14T04:27:46;99163.38;;;19.78;39.13
43298;BME280;28892;55.640;37.532;2023-06-14T04:30:35;99159.72;;;20.02;38.67
43298;BME280;28892;55.640;37.532;2023-06-14T04:33:22;99159.84;;;20.29;38.54
43298;BME280;28892;55.640;37.532;2023-06-14T04:36:17;99166.28;;;20.68;37.98
43298;BME280;28892;55.640;37.532;2023-06-14T04:38:56;99158.53;;;20.71;37.17
43298;BME280;28892;55.640;37.532;2023-06-14T04:41:30;99158.28;;;20.95;37.24
43298;BME280;28892;55.640;37.532;2023-06-14T04:47:15;99164.78;;;21.21;36.92
43298;BME280;28892;55.640;37.532;2023-06-14T04:49:42;99165.03;;;21.47;36.40
43298;BME280;28892;55.640;37.532;2023-06-14T04:52:08;99163.28;;;21.63;36.26
43298;BME280;28892;55.640;37.532;2023-06-14T04:54:40;99165.53;;;21.72;35.30
43298;BME280;28892;55.640;37.532;2023-06-14T04:57:11;99159.41;;;21.82;35.17
43298;BME280;28892;55.640;37.532;2023-06-14T04:59:48;99160.91;;;22.05;35.23
43298;BME280;28892;55.640;37.532;2023-06-14T05:02:21;99152.91;;;22.21;34.62
43298;BME280;28892;55.640;37.532;2023-06-14T05:04:49;99145.94;;;22.30;34.63
43298;BME280;28892;55.640;37.532;2023-06-14T05:07:16;99144.91;;;22.36;34.09
43298;BME280;28892;55.640;37.532;2023-06-14T05:09:42;99150.03;;;22.38;33.78
43298;BME280;28892;55.640;37.532;2023-06-14T05:12:08;99150.44;;;22.62;33.15
43298;BME280;28892;55.640;37.532;2023-06-14T05:14:36;99147.78;;;22.67;32.37
43298;BME280;28892;55.640;37.532;2023-06-14T05:17:39;99156.19;;;22.81;31.87
43298;BME280;28892;55.640;37.532;2023-06-14T05:20:39;99148.66;;;22.88;32.12
43298;BME280;28892;55.640;37.532;2023-06-14T05:23:13;99160.78;;;22.75;33.05
43298;BME280;28892;55.640;37.532;2023-06-14T05:25:50;99160.50;;;22.72;33.00
43298;BME280;28892;55.640;37.532;2023-06-14T05:28:24;99145.19;;;23.03;32.81
43298;BME280;28892;55.640;37.532;2023-06-14T05:31:08;99143.31;;;23.09;32.11
43298;BME280;28892;55.640;37.532;2023-06-14T05:33:54;99156.09;;;23.29;31.95
43298;BME280;28892;55.640;37.532;2023-06-14T05:36:57;99152.31;;;23.30;32.10
43298;BME280;28892;55.640;37.532;2023-06-14T05:39:24;99155.03;;;23.62;31.19
43298;BME280;28892;55.640;37.532;2023-06-14T05:42:39;99166.16;;;23.81;30.67
43298;BME280;28892;55.640;37.532;2023-06-14T05:45:05;99159.91;;;23.70;30.01
43298;BME280;28892;55.640;37.532;2023-06-14T05:47:41;99153.44;;;23.76;30.42
43298;BME280;28892;55.640;37.532;2023-06-14T05:50:26;99159.63;;;24.18;30.02
43298;BME280;28892;55.640;37.532;2023-06-14T05:53:21;99159.34;;;24.25;29.85
43298;BME280;28892;55.640;37.532;2023-06-14T06:03:48;99169.13;;;24.05;29.07
43298;BME280;28892;55.640;37.532;2023-06-14T06:06:14;99155.03;;;23.88;28.71
43298;BME280;28892;55.640;37.532;2023-06-14T06:08:40;99167.75;;;24.03;29.37
43298;BME280;28892;55.640;37.532;2023-06-14T06:11:06;99169.66;;;24.18;28.22
43298;BME280;28892;55.640;37.532;2023-06-14T06:13:34;99172.34;;;24.33;28.29
43298;BME280;28892;55.640;37.532;2023-06-14T06:16:04;99173.59;;;25.22;26.88
43298;BME280;28892;55.640;37.532;2023-06-14T06:18:30;99151.66;;;24.63;27.16
43298;BME280;28892;55.640;37.532;2023-06-14T06:21:06;99160.91;;;24.47;27.72
43298;BME280;28892;55.640;37.532;2023-06-14T06:23:35;99157.66;;;24.50;27.71
43298;BME280;28892;55.640;37.532;2023-06-14T06:26:03;99162.78;;;24.57;27.76
43298;BME280;28892;55.640;37.532;2023-06-14T06:28:32;99151.31;;;24.80;27.59
43298;BME280;28892;55.640;37.532;2023-06-14T06:31:11;99159.94;;;24.98;27.00
43298;BME280;28892;55.640;37.532;2023-06-14T06:33:38;99162.50;;;24.58;26.38
43298;BME280;28892;55.640;37.532;2023-06-14T06:36:08;99158.69;;;24.59;26.53
43298;BME280;28892;55.640;37.532;2023-06-14T06:38:34;99157.88;;;24.64;26.69
43298;BME280;28892;55.640;37.532;2023-06-14T06:41:00;99157.53;;;24.86;26.48
43298;BME280;28892;55.640;37.532;2023-06-14T06:43:26;99144.31;;;24.69;26.73
43298;BME280;28892;55.640;37.532;2023-06-14T06:45:52;99149.19;;;24.77;26.88
43298;BME280;28892;55.640;37.532;2023-06-14T06:48:20;99156.19;;;24.89;26.81
43298;BME280;28892;55.640;37.532;2023-06-14T06:50:51;99152.06;;;24.96;26.56
43298;BME280;28892;55.640;37.532;2023-06-14T06:53:18;99151.03;;;24.87;26.69
43298;BME280;28892;55.640;37.532;2023-06-14T06:55:48;99146.97;;;24.85;26.19
43298;BME280;28892;55.640;37.532;2023-06-14T06:58:17;99151.09;;;24.66;26.30
43298;BME280;28892;55.640;37.532;2023-06-14T07:00:58;99161.34;;;24.75;27.80
43298;BME280;28892;55.640;37.532;2023-06-14T07:03:24;99154.16;;;25.10;27.34
43298;BME280;28892;55.640;37.532;2023-06-14T07:06:17;99155.72;;;25.21;27.45
43298;BME280;28892;55.640;37.532;2023-06-14T07:08:51;99164.84;;;25.36;26.38
43298;BME280;28892;55.640;37.532;2023-06-14T08:09:19;99144.38;;;26.43;24.93
43298;BME280;28892;55.640;37.532;2023-06-14T08:11:51;99135.78;;;26.35;24.85
43298;BME280;28892;55.640;37.532;2023-06-14T08:14:18;99145.94;;;26.49;24.81
43298;BME280;28892;55.640;37.532;2023-06-14T08:16:44;99144.91;;;26.45;24.65
43298;BME280;28892;55.640;37.532;2023-06-14T08:19:28;99133.25;;;26.63;24.53
43298;BME280;28892;55.640;37.532;2023-06-14T08:22:14;99145.00;;;26.59;24.95
43298;BME280;28892;55.640;37.532;2023-06-14T08:24:59;99141.63;;;26.67;24.46
43298;BME280;28892;55.640;37.532;2023-06-14T08:27:59;99145.09;;;26.97;24.39
43298;BME280;28892;55.640;37.532;2023-06-14T08:30:42;99141.41;;;26.88;23.89
43298;BME280;28892;55.640;37.532;2023-06-14T08:33:17;99148.56;;;26.78;24.36
43298;BME280;28892;55.640;37.532;2023-06-14T08:35:43;99132.00;;;26.75;23.80
43298;BME280;28892;55.640;37.532;2023-06-14T08:38:10;99128.88;;;26.87;24.01
43298;BME280;28892;55.640;37.532;2023-06-14T08:40:41;99134.91;;;26.84;24.10
43298;BME280;28892;55.640;37.532;2023-06-14T08:43:07;99128.34;;;26.85;23.97
43298;BME280;28892;55.640;37.532;2023-06-14T08:45:33;99130.22;;;26.89;24.41
43298;BME280;28892;55.640;37.532;2023-06-14T08:47:59;99129.06;;;27.15;24.58
43298;BME280;28892;55.640;37.532;2023-06-14T08:50:27;99129.56;;;27.17;23.73
43298;BME280;28892;55.640;37.532;2023-06-14T08:52:57;99133.75;;;27.09;24.34
43298;BME280;28892;55.640;37.532;2023-06-14T08:55:34;99121.63;;;27.21;24.89
43298;BME280;28892;55.640;37.532;2023-06-14T08:58:52;99120.19;;;27.61;23.36
43298;BME280;28892;55.640;37.532;2023-06-14T09:10:15;99110.66;;;27.92;23.10
43298;BME280;28892;55.640;37.532;2023-06-14T09:20:54;99111.66;;;28.10;22.60
43298;BME280;28892;55.640;37.532;2023-06-14T09:23:20;99109.06;;;28.47;22.29
43298;BME280;28892;55.640;37.532;2023-06-14T09:25:50;99093.34;;;28.81;22.23
43298;BME280;28892;55.640;37.532;2023-06-14T09:28:16;99113.31;;;29.04;22.07
43298;BME280;28892;55.640;37.532;2023-06-14T09:30:49;99112.56;;;28.90;21.95
43298;BME280;28892;55.640;37.532;2023-06-14T09:33:33;99115.41;;;28.84;22.11
43298;BME280;28892;55.640;37.532;2023-06-14T09:36:26;99102.69;;;28.66;22.20
43298;BME280;28892;55.640;37.532;2023-06-14T09:39:16;99100.34;;;28.87;21.84
43298;BME280;28892;55.640;37.532;2023-06-14T09:43:07;99099.66;;;28.67;22.27
43298;BME280;28892;55.640;37.532;2023-06-14T09:45:37;99104.94;;;28.50;22.35
43298;BME280;28892;55.640;37.532;2023-06-14T09:48:15;99094.50;;;28.66;22.57
43298;BME280;28892;55.640;37.532;2023-06-14T09:51:37;99103.72;;;28.56;22.51
43298;BME280;28892;55.640;37.532;2023-06-14T09:54:35;99089.16;;;28.61;22.12
43298;BME280;28892;55.640;37.532;2023-06-14T09:58:26;99086.09;;;28.76;22.52
43298;BME280;28892;55.640;37.532;2023-06-14T10:01:51;99089.19;;;29.20;22.00
43298;BME280;28892;55.640;37.532;2023-06-14T10:09:42;99074.34;;;28.76;22.36
43298;BME280;28892;55.640;37.532;2023-06-14T10:33:49;99070.94;;;28.70;21.56
43298;BME280;28892;55.640;37.532;2023-06-14T10:37:13;99048.13;;;29.03;21.50
43298;BME280;28892;55.640;37.532;2023-06-14T10:39:55;99059.22;;;28.83;21.76
43298;BME280;28892;55.640;37.532;2023-06-14T10:42:27;99049.72;;;28.67;21.58
43298;BME280;28892;55.640;37.532;2023-06-14T10:45:12;99052.66;;;28.70;21.97
43298;BME280;28892;55.640;37.532;2023-06-14T10:47:39;99054.56;;;28.70;22.08
43298;BME280;28892;55.640;37.532;2023-06-14T10:50:12;99047.69;;;28.72;21.93
43298;BME280;28892;55.640;37.532;2023-06-14T10:53:21;99037.31;;;29.20;21.24
43298;BME280;28892;55.640;37.532;2023-06-14T10:56:26;99044.25;;;28.81;22.03
43298;BME280;28892;55.640;37.532;2023-06-14T10:59:01;99043.03;;;28.87;21.97
43298;BME280;28892;55.640;37.532;2023-06-14T11:01:37;99026.56;;;29.24;21.84
43298;BME280;28892;55.640;37.532;2023-06-14T11:04:10;99029.81;;;29.49;21.75
43298;BME280;28892;55.640;37.532;2023-06-14T11:06:49;99029.19;;;29.52;21.07
43298;BME280;28892;55.640;37.532;2023-06-14T11:10:49;99037.78;;;29.68;21.08
43298;BME280;28892;55.640;37.532;2023-06-14T11:13:19;99021.19;;;29.64;21.15
43298;BME280;28892;55.640;37.532;2023-06-14T11:15:50;99033.75;;;29.65;21.23
43298;BME280;28892;55.640;37.532;2023-06-14T11:18:31;99033.16;;;29.23;21.29
43298;BME280;28892;55.640;37.532;2023-06-14T11:21:07;99025.44;;;29.48;20.92
43298;BME280;28892;55.640;37.532;2023-06-14T11:30:33;99024.63;;;29.16;21.09
43298;BME280;28892;55.640;37.532;2023-06-14T11:44:00;99012.00;;;28.83;21.49
43298;BME280;28892;55.640;37.532;2023-06-14T11:47:37;99025.53;;;28.51;21.86
43298;BME280;28892;55.640;37.532;2023-06-14T11:58:48;99010.44;;;27.89;22.79
43298;BME280;28892;55.640;37.532;2023-06-14T12:02:03;98987.50;;;28.04;22.41
43298;BME280;28892;55.640;37.532;2023-06-14T12:12:55;98996.97;;;28.35;22.49
43298;BME280;28892;55.640;37.532;2023-06-14T12:16:01;98983.38;;;28.21;22.51
43298;BME280;28892;55.640;37.532;2023-06-14T12:23:14;98981.47;;;27.65;22.90
43298;BME280;28892;55.640;37.532;2023-06-14T12:25:49;98963.41;;;27.22;23.37
43298;BME280;28892;55.640;37.532;2023-06-14T12:35:24;98973.28;;;26.66;24.20
43298;BME280;28892;55.640;37.532;2023-06-14T12:38:13;98962.13;;;26.67;24.46
43298;BME280;28892;55.640;37.532;2023-06-14T12:45:09;98963.81;;;26.63;23.58
43298;BME280;28892;55.640;37.532;2023-06-14T12:48:06;98969.25;;;26.63;23.59
43298;BME280;28892;55.640;37.532;2023-06-14T12:50:46;98960.72;;;26.31;23.62
43298;BME280;28892;55.640;37.532;2023-06-14T12:53:12;98957.28;;;26.26;23.26
43298;BME280;28892;55.640;37.532;2023-06-14T12:55:38;98963.50;;;26.07;23.83
43298;BME280;28892;55.640;37.532;2023-06-14T12:58:09;98958.47;;;25.95;24.00
43298;BME280;28892;55.640;37.532;2023-06-14T13:00:38;98949.84;;;25.88;24.35
43298;BME280;28892;55.640;37.532;2023-06-14T13:03:05;98953.63;;;25.92;24.41
43298;BME280;28892;55.640;37.532;2023-06-14T13:05:40;98945.91;;;26.24;24.63
43298;BME280;28892;55.640;37.532;2023-06-14T13:08:09;98944.78;;;25.81;24.93
43298;BME280;28892;55.640;37.532;2023-06-14T13:10:38;98949.47;;;25.75;24.56
43298;BME280;28892;55.640;37.532;2023-06-14T13:13:04;98934.63;;;25.67;25.58
43298;BME280;28892;55.640;37.532;2023-06-14T13:15:35;98954.72;;;25.91;24.79
43298;BME280;28892;55.640;37.532;2023-06-14T13:18:07;98941.56;;;25.98;24.79
43298;BME280;28892;55.640;37.532;2023-06-14T13:20:39;98936.94;;;25.79;24.92
43298;BME280;28892;55.640;37.532;2023-06-14T13:23:05;98931.03;;;25.72;24.58
43298;BME280;28892;55.640;37.532;2023-06-14T13:26:08;98949.72;;;25.98;24.43
43298;BME280;28892;55.640;37.532;2023-06-14T13:33:47;98938.72;;;25.65;24.36
43298;BME280;28892;55.640;37.532;2023-06-14T13:41:31;98940.19;;;26.01;24.38
43298;BME280;28892;55.640;37.532;2023-06-14T13:51:44;98922.44;;;25.65;24.89
43298;BME280;28892;55.640;37.532;2023-06-14T13:58:20;98928.84;;;25.50;24.64
43298;BME280;28892;55.640;37.532;2023-06-14T14:01:10;98932.41;;;25.70;24.72
43298;BME280;28892;55.640;37.532;2023-06-14T14:03:44;98932.06;;;25.52;24.80
43298;BME280;28892;55.640;37.532;2023-06-14T14:06:12;98924.78;;;25.47;24.60
43298;BME280;28892;55.640;37.532;2023-06-14T14:09:09;98928.56;;;25.46;24.37
43298;BME280;28892;55.640;37.532;2023-06-14T14:20:33;98919.66;;;25.70;25.25
43298;BME280;28892;55.640;37.532;2023-06-14T14:23:05;98912.16;;;25.62;25.19
43298;BME280;28892;55.640;37.532;2023-06-14T14:25:31;98919.31;;;25.52;24.59
43298;BME280;28892;55.640;37.532;2023-06-14T14:27:57;98917.03;;;25.35;24.91
43298;BME280;28892;55.640;37.532;2023-06-14T14:30:27;98921.34;;;25.36;25.35
43298;BME280;28892;55.640;37.532;2023-06-14T14:33:08;98929.75;;;25.40;25.23
43298;BME280;28892;55.640;37.532;2023-06-14T14:35:35;98918.16;;;25.29;25.27
43298;BME280;28892;55.640;37.532;2023-06-14T14:38:30;98914.56;;;25.39;25.14
43298;BME280;28892;55.640;37.532;2023-06-14T14:45:21;98928.56;;;25.46;25.22
43298;BME280;28892;55.640;37.532;2023-06-14T14:47:54;98920.66;;;25.55;25.12
43298;BME280;28892;55.640;37.532;2023-06-14T14:50:36;98928.13;;;25.39;25.34
43298;BME280;28892;55.640;37.532;2023-06-14T14:53:03;98929.03;;;25.29;24.73
43298;BME280;28892;55.640;37.532;2023-06-14T14:55:28;98922.97;;;25.37;24.58
43298;BME280;28892;55.640;37.532;2023-06-14T14:58:08;98921.97;;;25.28;24.38
43298;BME280;28892;55.640;37.532;2023-06-14T15:00:54;98923.75;;;25.14;24.75
43298;BME280;28892;55.640;37.532;2023-06-14T15:03:26;98919.44;;;25.13;25.08
43298;BME280;28892;55.640;37.532;2023-06-14T15:06:02;98923.41;;;25.20;24.45
43298;BME280;28892;55.640;37.532;2023-06-14T15:08:31;98929.38;;;25.22;25.10
43298;BME280;28892;55.640;37.532;2023-06-14T15:11:07;98918.50;;;25.22;24.61
43298;BME280;28892;55.640;37.532;2023-06-14T15:13:38;98917.38;;;25.29;24.43
43298;BME280;28892;55.640;37.532;2023-06-14T15:16:20;98936.41;;;25.23;25.16
43298;BME280;28892;55.640;37.532;2023-06-14T15:19:31;98926.19;;;25.15;25.00
43298;BME280;28892;55.640;37.532;2023-06-14T15:26:47;98928.06;;;25.44;24.71
43298;BME280;28892;55.640;37.532;2023-06-14T15:29:46;98925.28;;;25.25;24.54
43298;BME280;28892;55.640;37.532;2023-06-14T15:35:49;98929.84;;;25.00;24.23
43298;BME280;28892;55.640;37.532;2023-06-14T15:38:23;98931.22;;;24.97;24.72
43298;BME280;28892;55.640;37.532;2023-06-14T15:41:12;98934.50;;;25.24;24.77
43298;BME280;28892;55.640;37.532;2023-06-14T15:47:13;98943.59;;;25.09;24.61
43298;BME280;28892;55.640;37.532;2023-06-14T15:50:14;98931.16;;;25.03;25.10
43298;BME280;28892;55.640;37.532;2023-06-14T15:52:52;98938.53;;;25.02;25.89
43298;BME280;28892;55.640;37.532;2023-06-14T15:55:34;98937.59;;;25.12;25.19
43298;BME280;28892;55.640;37.532;2023-06-14T15:58:00;98948.19;;;25.14;24.98
43298;BME280;28892;55.640;37.532;2023-06-14T16:00:26;98944.38;;;25.15;24.91
43298;BME280;28892;55.640;37.532;2023-06-14T16:02:52;98923.25;;;25.11;24.99
43298;BME280;28892;55.640;37.532;2023-06-14T16:05:18;98944.03;;;24.92;25.45
43298;BME280;28892;55.640;37.532;2023-06-14T16:07:44;98933.50;;;24.85;25.19
43298;BME280;28892;55.640;37.532;2023-06-14T16:10:39;98937.06;;;25.15;25.07
43298;BME280;28892;55.640;37.532;2023-06-14T16:13:08;98934.03;;;24.87;25.48
43298;BME280;28892;55.640;37.532;2023-06-14T16:15:43;98936.28;;;24.75;25.08
43298;BME280;28892;55.640;37.532;2023-06-14T16:18:32;98938.44;;;24.78;24.91
43298;BME280;28892;55.640;37.532;2023-06-14T16:21:01;98939.78;;;24.80;25.21
43298;BME280;28892;55.640;37.532;2023-06-14T16:27:27;98946.00;;;24.81;25.42
43298;BME280;28892;55.640;37.532;2023-06-14T16:30:36;98954.25;;;24.65;25.24
43298;BME280;28892;55.640;37.532;2023-06-14T16:33:13;98942.38;;;24.56;24.95
43298;BME280;28892;55.640;37.532;2023-06-14T16:35:43;98946.22;;;24.50;25.57
43298;BME280;28892;55.640;37.532;2023-06-14T16:41:51;98955.34;;;24.64;25.41
43298;BME280;28892;55.640;37.532;2023-06-14T16:47:57;98961.72;;;24.44;26.04
43298;BME280;28892;55.640;37.532;2023-06-14T16:50:32;98962.00;;;24.37;26.45
43298;BME280;28892;55.640;37.532;2023-06-14T16:53:33;98961.91;;;24.53;26.10
43298;BME280;28892;55.640;37.532;2023-06-14T16:56:07;98953.59;;;24.39;25.66
43298;BME280;28892;55.640;37.532;2023-06-14T16:59:06;98980.84;;;24.58;25.57
43298;BME280;28892;55.640;37.532;2023-06-14T17:02:01;98968.44;;;24.47;26.33
43298;BME280;28892;55.640;37.532;2023-06-14T17:05:09;98968.75;;;24.45;25.80
43298;BME280;28892;55.640;37.532;2023-06-14T17:08:11;98973.91;;;24.41;26.26
43298;BME280;28892;55.640;37.532;2023-06-14T17:10:57;98975.03;;;24.35;26.40
43298;BME280;28892;55.640;37.532;2023-06-14T17:13:44;98978.88;;;24.24;25.93
43298;BME280;28892;55.640;37.532;2023-06-14T17:16:20;98974.84;;;24.16;26.60
43298;BME280;28892;55.640;37.532;2023-06-14T17:19:16;98972.66;;;24.23;25.94